Time;durP1;ratioP1;P1;durP2;ratioP2;P2;SDS_P1;SDS_P2;PMS_P1;PMS_P2;Temp;Humidity;BMP_temperature;BMP_pressure;BME280_temperature;BME280_humidity;BME280_pressure;Samples;Min_cycle;Max_cycle;Signal;HPM_P1;HPM_P2
2021/03/08 00:00:12;;;;;;;0.57;0.57;;;1.00;99.90;;;;;;4895086;29;20210;-79
2021/03/08 00:02:38;;;;;;;0.60;0.60;;;1.00;99.90;;;;;;4895494;29;20560;-78
2021/03/08 00:05:06;;;;;;;0.50;0.50;;;1.00;99.90;;;;;;4894957;29;20736;-79
2021/03/08 00:07:32;;;;;;;0.50;0.50;;;0.90;99.90;;;;;;4894309;29;20214;-78
2021/03/08 00:09:58;;;;;;;0.50;0.50;;;0.80;99.90;;;;;;4894498;29;20201;-78
2021/03/08 00:12:24;;;;;;;0.60;0.60;;;0.80;99.90;;;;;;4894468;29;20225;-78
2021/03/08 00:14:50;;;;;;;0.50;0.50;;;0.80;99.90;;;;;;4894942;29;20716;-78
2021/03/08 00:17:17;;;;;;;0.50;0.50;;;0.80;99.90;;;;;;4894234;29;20269;-78
2021/03/08 00:19:43;;;;;;;0.50;0.50;;;0.70;99.90;;;;;;4896523;29;20221;-78
2021/03/08 00:22:09;;;;;;;0.50;0.50;;;0.70;99.90;;;;;;4896372;29;20229;-79
2021/03/08 00:24:36;;;;;;;0.50;0.50;;;0.60;99.90;;;;;;4895725;29;20202;-79
2021/03/08 00:27:02;;;;;;;0.60;0.60;;;0.60;99.90;;;;;;4895417;29;20237;-79
2021/03/08 00:29:28;;;;;;;0.60;0.60;;;0.60;99.90;;;;;;4895422;29;20248;-79
2021/03/08 00:31:54;;;;;;;0.50;0.50;;;0.70;99.90;;;;;;4894791;29;20696;-78
2021/03/08 00:34:21;;;;;;;0.60;0.60;;;0.60;99.90;;;;;;4894885;29;20681;-79
2021/03/08 00:36:47;;;;;;;0.60;0.60;;;0.60;99.90;;;;;;4894657;29;20213;-79
2021/03/08 00:39:13;;;;;;;0.60;0.60;;;0.60;99.90;;;;;;4894387;29;20285;-79
2021/03/08 00:41:40;;;;;;;0.60;0.60;;;0.60;99.90;;;;;;4894823;29;20206;-79
2021/03/08 00:44:06;;;;;;;0.50;0.50;;;0.60;99.90;;;;;;4895218;29;20206;-79
2021/03/08 00:46:32;;;;;;;0.60;0.60;;;0.60;99.90;;;;;;4894068;29;20210;-79
2021/03/08 00:48:58;;;;;;;0.60;0.60;;;0.60;99.90;;;;;;4894109;29;20440;-79
2021/03/08 00:51:25;;;;;;;0.50;0.50;;;0.50;99.90;;;;;;4893327;29;20741;-79
2021/03/08 00:53:51;;;;;;;0.57;0.57;;;0.50;99.90;;;;;;4893930;29;20209;-79
2021/03/08 00:56:17;;;;;;;0.50;0.50;;;0.50;99.90;;;;;;4901353;29;20632;-79
2021/03/08 00:58:43;;;;;;;0.55;0.55;;;0.50;99.90;;;;;;4901117;29;20210;-79
2021/03/08 01:01:09;;;;;;;0.50;0.50;;;0.50;99.90;;;;;;4900070;29;20206;-79
2021/03/08 01:03:35;;;;;;;0.50;0.50;;;0.40;99.90;;;;;;4899644;29;20201;-79
2021/03/08 01:06:02;;;;;;;0.50;0.50;;;0.40;99.90;;;;;;4898283;29;20209;-77
2021/03/08 01:08:29;;;;;;;0.60;0.60;;;0.40;99.90;;;;;;4894822;29;20216;-78
2021/03/08 01:10:55;;;;;;;0.60;0.60;;;0.40;99.90;;;;;;4893493;29;20241;-79
2021/03/08 01:13:21;;;;;;;0.50;0.50;;;0.30;99.90;;;;;;4893291;29;20650;-79
2021/03/08 01:15:50;;;;;;;0.60;0.60;;;0.30;99.90;;;;;;4893035;29;20558;-79
2021/03/08 01:18:17;;;;;;;0.50;0.50;;;0.20;99.90;;;;;;4893120;29;20214;-79
2021/03/08 01:20:43;;;;;;;0.60;0.60;;;0.20;99.90;;;;;;4893108;29;20218;-79
2021/03/08 01:23:09;;;;;;;0.50;0.50;;;0.10;99.90;;;;;;4893565;29;20684;-78
2021/03/08 01:25:36;;;;;;;0.60;0.60;;;0.00;99.90;;;;;;4893218;29;20205;-79
2021/03/08 01:28:03;;;;;;;0.60;0.60;;;0.00;99.90;;;;;;4892984;29;20249;-78
2021/03/08 01:30:32;;;;;;;0.60;0.60;;;0.00;99.90;;;;;;4892962;29;20210;-79
2021/03/08 01:32:58;;;;;;;0.60;0.60;;;0.00;99.90;;;;;;4892947;29;20294;-78
2021/03/08 01:35:25;;;;;;;0.50;0.50;;;0.00;99.90;;;;;;4896250;29;20240;-78
2021/03/08 01:37:51;;;;;;;0.60;0.60;;;-0.10;99.90;;;;;;4897134;29;20210;-79
2021/03/08 01:40:22;;;;;;;0.55;0.55;;;-0.10;99.90;;;;;;4896613;29;20319;-79
2021/03/08 01:42:49;;;;;;;0.60;0.60;;;-0.20;99.90;;;;;;4896898;29;20564;-78
2021/03/08 01:45:18;;;;;;;0.60;0.60;;;-0.20;99.90;;;;;;4896403;29;20242;-79
2021/03/08 01:47:45;;;;;;;0.60;0.60;;;-0.30;99.90;;;;;;4896620;29;20481;-78
2021/03/08 01:50:15;;;;;;;0.57;0.57;;;-0.40;99.90;;;;;;4896479;29;20237;-78
2021/03/08 01:52:42;;;;;;;0.60;0.60;;;-0.40;99.90;;;;;;4896461;29;20229;-78
2021/03/08 01:55:09;;;;;;;0.50;0.50;;;-0.40;99.90;;;;;;4896894;29;20210;-79
2021/03/08 01:57:36;;;;;;;0.50;0.50;;;-0.50;99.90;;;;;;4896592;29;20563;-79
2021/03/08 02:00:05;;;;;;;0.60;0.60;;;-0.40;99.90;;;;;;4896261;29;20209;-78
2021/03/08 02:02:32;;;;;;;0.52;0.52;;;-0.50;99.90;;;;;;4896429;29;20217;-78
2021/03/08 02:04:58;;;;;;;0.50;0.50;;;-0.60;99.90;;;;;;4896224;29;20232;-78
2021/03/08 02:07:24;;;;;;;0.50;0.50;;;-0.60;99.90;;;;;;4896275;29;20570;-78
2021/03/08 02:09:50;;;;;;;0.52;0.52;;;-0.70;99.90;;;;;;4896747;29;20205;-79
2021/03/08 02:12:23;;;;;;;0.50;0.50;;;-0.70;99.90;;;;;;4895944;29;20632;-78
2021/03/08 02:15:03;;;;;;;0.50;0.50;;;-0.70;99.90;;;;;;4896470;29;20206;-79
2021/03/08 02:17:36;;;;;;;0.60;0.60;;;-0.70;99.90;;;;;;4896040;29;20300;-79
2021/03/08 02:20:25;;;;;;;0.50;0.50;;;-0.90;99.90;;;;;;4896034;29;20220;-78
2021/03/08 02:23:28;;;;;;;0.60;0.60;;;-0.80;99.90;;;;;;4896378;29;20216;-79
2021/03/08 02:26:30;;;;;;;0.57;0.57;;;-0.90;99.90;;;;;;4896003;29;20728;-79
2021/03/08 02:29:34;;;;;;;0.50;0.50;;;-0.80;99.90;;;;;;4893600;29;20209;-79
2021/03/08 02:32:03;;;;;;;0.60;0.60;;;-0.90;99.90;;;;;;4895791;29;20256;-79
2021/03/08 02:34:32;;;;;;;0.60;0.60;;;-0.90;99.90;;;;;;4896499;29;20206;-77
2021/03/08 02:37:03;;;;;;;0.50;0.50;;;-0.60;99.90;;;;;;4895659;29;20418;-78
2021/03/08 02:39:33;;;;;;;0.50;0.50;;;-0.90;99.90;;;;;;4895558;29;20217;-78
2021/03/08 02:42:01;;;;;;;0.50;0.50;;;-0.90;99.90;;;;;;4895529;29;20747;-78
2021/03/08 02:44:32;;;;;;;0.60;0.60;;;-0.90;99.90;;;;;;4895482;29;20586;-78
2021/03/08 02:46:59;;;;;;;0.50;0.50;;;-1.00;99.90;;;;;;4894532;29;20216;-78
2021/03/08 02:49:28;;;;;;;0.60;0.60;;;-1.00;99.90;;;;;;4895528;29;20241;-78
2021/03/08 02:51:58;;;;;;;0.60;0.60;;;-1.10;99.90;;;;;;4895455;29;20606;-78
2021/03/08 02:54:26;;;;;;;0.60;0.60;;;-1.10;99.90;;;;;;4895446;29;20581;-78
2021/03/08 02:56:55;;;;;;;0.60;0.60;;;-1.10;99.90;;;;;;4895773;29;20210;-78
2021/03/08 02:59:23;;;;;;;0.50;0.50;;;-1.10;99.90;;;;;;4895648;29;20214;-78
2021/03/08 03:01:50;;;;;;;0.57;0.57;;;-1.10;99.90;;;;;;4895515;29;20588;-78
2021/03/08 03:04:18;;;;;;;0.60;0.60;;;-1.20;99.90;;;;;;4895217;29;20261;-78
2021/03/08 03:06:46;;;;;;;0.60;0.60;;;-1.10;99.90;;;;;;4895102;29;20206;-78
2021/03/08 03:09:14;;;;;;;0.60;0.60;;;-1.20;99.90;;;;;;4895111;29;20213;-77
2021/03/08 03:11:42;;;;;;;0.60;0.60;;;-1.20;99.90;;;;;;4895078;29;20235;-77
2021/03/08 03:14:11;;;;;;;0.60;0.60;;;-1.40;99.90;;;;;;4895901;29;20214;-77
2021/03/08 03:16:39;;;;;;;0.60;0.60;;;-1.60;99.90;;;;;;4895353;29;20696;-78
2021/03/08 03:19:06;;;;;;;0.50;0.50;;;-1.60;99.90;;;;;;4895336;29;20214;-77
2021/03/08 03:21:34;;;;;;;0.57;0.57;;;-1.60;99.90;;;;;;4894718;29;20636;-78
2021/03/08 03:24:01;;;;;;;0.60;0.60;;;-1.60;99.90;;;;;;4894841;29;20460;-77
2021/03/08 03:26:30;;;;;;;0.60;0.60;;;-1.60;99.90;;;;;;4894486;29;20214;-78
2021/03/08 03:28:56;;;;;;;0.60;0.60;;;-1.60;99.90;;;;;;4894782;29;20213;-78
2021/03/08 03:31:23;;;;;;;0.60;0.60;;;-1.60;99.90;;;;;;4894958;29;20222;-78
2021/03/08 03:33:53;;;;;;;0.50;0.50;;;-1.70;99.90;;;;;;4895133;29;20210;-78
2021/03/08 03:36:21;;;;;;;0.60;0.60;;;-1.70;99.90;;;;;;4894751;29;20673;-78
2021/03/08 03:38:48;;;;;;;0.60;0.60;;;-1.90;99.90;;;;;;4894577;29;20744;-78
2021/03/08 03:41:15;;;;;;;0.60;0.60;;;-1.70;99.90;;;;;;4894460;29;20704;-78
2021/03/08 03:43:41;;;;;;;0.50;0.50;;;-1.90;99.90;;;;;;4894365;29;20221;-77
2021/03/08 03:46:07;;;;;;;0.50;0.50;;;-1.90;99.90;;;;;;4894901;29;20214;-78
2021/03/08 03:48:33;;;;;;;0.60;0.60;;;-1.70;99.90;;;;;;4894474;29;20241;-78
2021/03/08 03:51:00;;;;;;;0.55;0.55;;;-2.00;99.90;;;;;;4894209;29;20230;-78
2021/03/08 03:53:26;;;;;;;0.50;0.50;;;-2.00;99.90;;;;;;4894037;29;20277;-78
2021/03/08 03:55:53;;;;;;;0.57;0.57;;;-2.10;99.90;;;;;;4894771;29;20258;-78
2021/03/08 03:58:25;;;;;;;0.60;0.60;;;-2.10;99.90;;;;;;4893993;29;20217;-77
2021/03/08 04:00:56;;;;;;;0.50;0.50;;;-2.10;99.90;;;;;;4894685;29;20227;-78
2021/03/08 04:03:28;;;;;;;0.60;0.60;;;-2.10;99.90;;;;;;4894485;29;20669;-78
2021/03/08 04:05:57;;;;;;;0.60;0.60;;;-2.20;99.90;;;;;;4894362;29;20269;-78
2021/03/08 04:08:25;;;;;;;0.60;0.60;;;-2.40;99.90;;;;;;4894332;29;20210;-78
2021/03/08 04:10:53;;;;;;;0.50;0.50;;;-2.40;99.90;;;;;;4894303;29;20274;-78
2021/03/08 04:13:27;;;;;;;0.55;0.55;;;-2.40;99.90;;;;;;4894005;29;20702;-78
2021/03/08 04:15:54;;;;;;;0.60;0.60;;;-2.40;99.90;;;;;;4894278;29;20217;-78
2021/03/08 04:18:21;;;;;;;0.60;0.60;;;-2.40;99.90;;;;;;4894171;29;20210;-78
2021/03/08 04:20:48;;;;;;;0.60;0.60;;;-2.40;99.90;;;;;;4893918;29;20213;-78
2021/03/08 04:23:18;;;;;;;0.50;0.50;;;-2.40;99.90;;;;;;4893756;29;20202;-77
2021/03/08 04:25:47;;;;;;;0.60;0.60;;;-2.50;99.90;;;;;;4893708;29;20209;-78
2021/03/08 04:28:14;;;;;;;0.60;0.60;;;-2.50;99.90;;;;;;4893414;29;20253;-78
2021/03/08 04:30:42;;;;;;;0.52;0.52;;;-2.50;99.90;;;;;;4893673;29;20210;-78
2021/03/08 04:33:11;;;;;;;0.50;0.50;;;-2.50;99.90;;;;;;4894030;29;20645;-78
2021/03/08 04:35:37;;;;;;;0.50;0.50;;;-2.60;99.90;;;;;;4893954;29;20254;-79
2021/03/08 04:38:05;;;;;;;0.60;0.60;;;-2.60;99.90;;;;;;4893743;29;20209;-77
2021/03/08 04:40:32;;;;;;;0.60;0.60;;;-2.60;99.90;;;;;;4893376;29;20213;-78
2021/03/08 04:42:59;;;;;;;0.60;0.60;;;-2.70;99.90;;;;;;4893406;29;20201;-77
2021/03/08 04:45:26;;;;;;;0.60;0.60;;;-2.70;99.90;;;;;;4893393;29;20210;-78
2021/03/08 04:47:53;;;;;;;0.60;0.60;;;-2.70;99.90;;;;;;4893893;29;20218;-78
2021/03/08 04:50:20;;;;;;;0.50;0.50;;;-2.70;99.90;;;;;;4893364;29;20225;-77
2021/03/08 04:52:49;;;;;;;0.60;0.60;;;-2.80;99.90;;;;;;4893209;29;20252;-77
2021/03/08 04:55:16;;;;;;;0.60;0.60;;;-2.80;99.90;;;;;;4893277;29;20527;-77
2021/03/08 04:57:43;;;;;;;0.60;0.60;;;-2.80;99.90;;;;;;4893048;29;20213;-78
2021/03/08 05:00:12;;;;;;;0.60;0.60;;;-2.20;99.90;;;;;;4893338;29;20257;-78
2021/03/08 05:02:41;;;;;;;0.60;0.60;;;-2.80;99.90;;;;;;4893289;29;20213;-78
2021/03/08 05:05:10;;;;;;;0.60;0.60;;;-2.90;99.90;;;;;;4893617;29;20248;-78
2021/03/08 05:07:40;;;;;;;0.60;0.60;;;-2.90;99.90;;;;;;4893363;29;20221;-79
2021/03/08 05:10:09;;;;;;;0.50;0.50;;;-2.80;99.90;;;;;;4892865;29;20605;-79
2021/03/08 05:12:37;;;;;;;0.60;0.60;;;-2.90;99.90;;;;;;4893072;29;20236;-79
2021/03/08 05:15:08;;;;;;;0.60;0.60;;;-2.90;99.90;;;;;;4893624;29;20212;-79
2021/03/08 05:17:35;;;;;;;0.60;0.60;;;-3.00;99.90;;;;;;4893061;29;20220;-79
2021/03/08 05:20:03;;;;;;;0.60;0.60;;;-3.00;99.90;;;;;;4893018;29;20356;-79
2021/03/08 05:22:33;;;;;;;0.60;0.60;;;-2.90;99.90;;;;;;4892705;29;20202;-79
2021/03/08 05:24:59;;;;;;;0.60;0.60;;;-3.00;99.90;;;;;;4892987;29;20496;-80
2021/03/08 05:27:26;;;;;;;0.60;0.60;;;-3.10;99.90;;;;;;4892824;29;20237;-81
2021/03/08 05:29:54;;;;;;;0.60;0.60;;;-3.20;99.90;;;;;;4893333;29;20210;-79
2021/03/08 05:32:25;;;;;;;0.60;0.60;;;-2.70;99.90;;;;;;4893064;29;20265;-80
2021/03/08 05:34:54;;;;;;;0.60;0.60;;;-3.30;99.90;;;;;;4893691;29;20210;-80
2021/03/08 05:37:21;;;;;;;0.60;0.60;;;-3.20;99.90;;;;;;4893030;29;20254;-79
2021/03/08 05:39:49;;;;;;;0.60;0.60;;;-3.30;99.90;;;;;;4892802;29;20218;-79
2021/03/08 05:42:17;;;;;;;0.60;0.60;;;-3.40;99.90;;;;;;4892605;29;20686;-79
2021/03/08 05:44:47;;;;;;;0.50;0.50;;;-3.40;99.90;;;;;;4892640;29;20217;-79
2021/03/08 05:47:25;;;;;;;0.57;0.57;;;-3.40;99.90;;;;;;4892729;29;20861;-79
2021/03/08 05:50:17;;;;;;;0.60;0.60;;;-3.40;99.90;;;;;;4893155;29;20241;-79
2021/03/08 05:53:10;;;;;;;0.55;0.55;;;-3.40;99.90;;;;;;4883932;29;20233;-79
2021/03/08 05:56:00;;;;;;;0.60;0.60;;;-3.40;99.90;;;;;;4893046;29;20205;-79
2021/03/08 05:58:54;;;;;;;0.50;0.50;;;-3.40;99.90;;;;;;4892505;29;20214;-79
2021/03/08 06:01:46;;;;;;;0.60;0.60;;;-3.50;99.90;;;;;;4893035;29;20682;-79
2021/03/08 06:04:26;;;;;;;0.60;0.60;;;-3.50;99.90;;;;;;4892670;29;20205;-79
2021/03/08 06:07:13;;;;;;;0.60;0.60;;;-3.50;99.90;;;;;;4893226;29;20206;-79
2021/03/08 06:09:51;;;;;;;0.60;0.60;;;-3.50;99.90;;;;;;4892615;29;20210;-79
2021/03/08 06:12:22;;;;;;;0.57;0.57;;;-3.50;99.90;;;;;;4892355;29;20236;-79
2021/03/08 06:14:52;;;;;;;0.60;0.60;;;-3.60;99.90;;;;;;4892875;29;20208;-79
2021/03/08 06:17:19;;;;;;;0.57;0.57;;;-3.60;99.90;;;;;;4892765;29;20210;-78
2021/03/08 06:19:46;;;;;;;0.60;0.60;;;-3.10;99.90;;;;;;4893388;29;20217;-79
2021/03/08 06:22:13;;;;;;;0.60;0.60;;;-3.60;99.90;;;;;;4895822;29;20205;-78
2021/03/08 06:24:43;;;;;;;0.60;0.60;;;-3.60;99.90;;;;;;4896155;29;20217;-78
2021/03/08 06:27:14;;;;;;;0.60;0.60;;;-3.60;99.90;;;;;;4895805;29;20238;-80
2021/03/08 06:29:43;;;;;;;0.50;0.50;;;-3.60;99.90;;;;;;4895964;29;20594;-78
2021/03/08 06:32:10;;;;;;;0.60;0.60;;;-3.20;99.90;;;;;;4896045;29;20221;-78
2021/03/08 06:34:50;;;;;;;0.60;0.60;;;-3.40;99.90;;;;;;4895973;29;20673;-77
2021/03/08 06:37:17;;;;;;;0.60;0.60;;;-3.30;99.90;;;;;;4895704;29;20206;-78
2021/03/08 06:39:45;;;;;;;0.60;0.60;;;-3.20;99.90;;;;;;4895767;29;20437;-77
2021/03/08 06:42:12;;;;;;;0.60;0.60;;;-3.10;99.90;;;;;;4895603;29;20206;-79
2021/03/08 06:44:38;;;;;;;0.60;0.60;;;-3.10;99.90;;;;;;4895906;29;20210;-78
2021/03/08 06:47:11;;;;;;;0.50;0.50;;;-3.00;99.90;;;;;;4895808;29;20313;-77
2021/03/08 06:49:37;;;;;;;0.50;0.50;;;-3.00;99.90;;;;;;4896143;29;20206;-78
2021/03/08 06:52:05;;;;;;;0.50;0.50;;;-2.90;99.90;;;;;;4895441;29;20226;-78
2021/03/08 06:54:33;;;;;;;0.60;0.60;;;-3.00;99.90;;;;;;4895278;29;20229;-78
2021/03/08 06:56:59;;;;;;;0.60;0.60;;;-3.00;99.90;;;;;;4896842;29;20210;-77
2021/03/08 06:59:25;;;;;;;0.60;0.60;;;-3.00;99.90;;;;;;4895444;29;20217;-77
2021/03/08 07:01:52;;;;;;;0.60;0.60;;;-2.80;99.90;;;;;;4895929;29;20555;-77
2021/03/08 07:04:22;;;;;;;0.50;0.50;;;-2.70;99.90;;;;;;4895501;29;20209;-77
2021/03/08 07:07:02;;;;;;;0.60;0.60;;;-2.50;99.90;;;;;;4896028;29;20623;-78
2021/03/08 07:09:28;;;;;;;0.60;0.60;;;-2.40;99.90;;;;;;4895414;29;20213;-79
2021/03/08 07:12:08;;;;;;;0.60;0.60;;;-2.20;99.90;;;;;;4896943;29;20218;-80
2021/03/08 07:14:35;;;;;;;0.60;0.60;;;-2.00;99.90;;;;;;4896680;29;20594;-78
2021/03/08 07:17:01;;;;;;;0.60;0.60;;;-2.00;99.90;;;;;;4895728;29;20309;-78
2021/03/08 07:19:28;;;;;;;0.50;0.50;;;-1.80;99.90;;;;;;4898290;29;20209;-80
2021/03/08 07:21:56;;;;;;;0.55;0.55;;;-2.00;99.90;;;;;;5212907;23;20251;-81
2021/03/08 07:24:22;;;;;;;0.60;0.60;;;-2.10;99.90;;;;;;4917055;29;20208;-77
2021/03/08 07:26:50;;;;;;;0.60;0.60;;;-2.10;99.90;;;;;;4913505;29;20224;-77
2021/03/08 07:29:18;;;;;;;0.60;0.60;;;-1.90;99.90;;;;;;4913843;29;20209;-76
2021/03/08 07:31:45;;;;;;;0.60;0.60;;;-1.70;99.90;;;;;;4913379;29;20570;-77
2021/03/08 07:34:13;;;;;;;0.60;0.60;;;-1.40;99.90;;;;;;4914184;29;20264;-76
2021/03/08 07:36:41;;;;;;;0.60;0.60;;;-1.20;99.90;;;;;;4914683;29;20296;-77
2021/03/08 07:39:16;;;;;;;0.60;0.60;;;-1.00;99.90;;;;;;4914530;29;20217;-77
2021/03/08 07:41:54;;;;;;;0.60;0.60;;;-0.90;99.90;;;;;;4913794;29;20209;-77
2021/03/08 07:44:21;;;;;;;0.60;0.60;;;-0.80;99.90;;;;;;4914304;29;20724;-77
2021/03/08 07:46:48;;;;;;;0.50;0.50;;;-0.70;99.90;;;;;;4913785;29;20204;-76
2021/03/08 07:49:15;;;;;;;0.50;0.50;;;-0.90;99.90;;;;;;4913695;29;20704;-76
2021/03/08 07:52:06;;;;;;;0.60;0.60;;;-0.90;99.90;;;;;;4913435;29;20232;-77
2021/03/08 07:54:51;;;;;;;0.50;0.50;;;-0.60;99.90;;;;;;4914393;29;20268;-78
2021/03/08 07:57:17;;;;;;;0.60;0.60;;;-0.60;99.90;;;;;;4913619;29;20676;-77
2021/03/08 07:59:44;;;;;;;0.60;0.60;;;-0.40;99.90;;;;;;4913923;29;20272;-77
2021/03/08 08:02:10;;;;;;;0.60;0.60;;;-0.20;99.90;;;;;;4913970;29;20212;-78
2021/03/08 08:04:36;;;;;;;0.60;0.60;;;-0.10;99.90;;;;;;4914526;29;20676;-78
2021/03/08 08:07:08;;;;;;;0.60;0.60;;;0.00;99.90;;;;;;4911149;29;20205;-79
2021/03/08 08:09:49;;;;;;;0.60;0.60;;;-0.10;99.90;;;;;;4913777;29;20213;-79
2021/03/08 08:12:22;;;;;;;0.60;0.60;;;0.20;99.90;;;;;;4908327;29;20676;-78
2021/03/08 08:14:50;;;;;;;0.60;0.60;;;0.20;99.90;;;;;;4910482;29;20284;-78
2021/03/08 08:17:21;;;;;;;0.50;0.50;;;0.10;99.90;;;;;;4913440;29;20208;-78
2021/03/08 08:19:50;;;;;;;0.50;0.50;;;0.30;99.90;;;;;;4913254;29;20216;-78
2021/03/08 08:22:21;;;;;;;0.50;0.50;;;0.50;99.90;;;;;;4909932;29;20237;-78
2021/03/08 08:24:48;;;;;;;0.50;0.50;;;0.50;99.90;;;;;;4912552;29;20220;-77
2021/03/08 08:27:17;;;;;;;0.60;0.60;;;0.60;99.90;;;;;;4912642;29;20201;-79
2021/03/08 08:29:45;;;;;;;0.60;0.60;;;0.70;99.90;;;;;;4912381;29;20354;-79
2021/03/08 08:32:12;;;;;;;0.60;0.60;;;0.50;99.90;;;;;;4912341;29;20212;-77
2021/03/08 08:34:40;;;;;;;0.60;0.60;;;0.40;99.90;;;;;;4912549;29;20224;-78
2021/03/08 08:37:11;;;;;;;0.60;0.60;;;0.50;99.90;;;;;;4910609;29;20216;-78
2021/03/08 08:39:39;;;;;;;0.60;0.60;;;0.80;99.90;;;;;;4870410;29;20213;-77
2021/03/08 08:42:16;;;;;;;0.60;0.60;;;0.90;99.90;;;;;;4910504;29;20193;-78
2021/03/08 08:44:43;;;;;;;0.60;0.60;;;0.80;99.90;;;;;;4907022;29;20584;-77
2021/03/08 08:47:21;;;;;;;0.60;0.60;;;1.00;99.90;;;;;;4908159;29;20201;-77
2021/03/08 08:49:48;;;;;;;0.52;0.52;;;1.00;99.90;;;;;;4904955;29;20213;-77
2021/03/08 08:52:15;;;;;;;0.50;0.50;;;1.10;99.90;;;;;;4909387;29;20291;-77
2021/03/08 08:54:55;;;;;;;0.50;0.50;;;1.20;99.90;;;;;;4909230;29;20213;-77
2021/03/08 08:57:22;;;;;;;0.60;0.60;;;1.40;99.90;;;;;;4908008;29;20240;-77
2021/03/08 09:00:14;;;;;;;0.55;0.55;;;1.30;99.90;;;;;;4907858;29;20224;-77
2021/03/08 09:02:40;;;;;;;0.50;0.50;;;1.30;99.90;;;;;;4908507;29;20635;-77
2021/03/08 09:05:37;;;;;;;0.60;0.60;;;1.30;99.90;;;;;;4911049;29;20209;-77
2021/03/08 09:08:26;;;;;;;0.50;0.50;;;1.40;99.90;;;;;;4911468;29;20236;-82
2021/03/08 09:10:54;;;;;;;0.60;0.60;;;1.30;99.90;;;;;;4908049;29;20320;-79
2021/03/08 09:13:22;;;;;;;0.50;0.50;;;1.20;99.90;;;;;;4911203;29;20228;-79
2021/03/08 09:15:48;;;;;;;0.57;0.57;;;1.40;99.90;;;;;;4911397;29;20567;-79
2021/03/08 09:18:15;;;;;;;0.60;0.60;;;1.40;99.90;;;;;;4910695;29;20205;-79
2021/03/08 09:20:43;;;;;;;0.60;0.60;;;1.40;99.90;;;;;;4911024;29;20221;-79
2021/03/08 09:23:21;;;;;;;0.60;0.60;;;1.50;99.90;;;;;;4910561;29;20229;-79
2021/03/08 09:25:56;;;;;;;0.57;0.57;;;1.50;99.90;;;;;;4910376;29;20213;-79
2021/03/08 09:28:22;;;;;;;0.60;0.60;;;1.40;99.90;;;;;;4910967;29;20263;-79
2021/03/08 09:30:49;;;;;;;0.60;0.60;;;1.20;99.90;;;;;;4910654;29;20543;-79
2021/03/08 09:33:17;;;;;;;0.50;0.50;;;1.60;99.90;;;;;;4911098;29;20498;-80
2021/03/08 09:35:45;;;;;;;0.60;0.60;;;1.60;99.90;;;;;;4911310;29;20761;-79
2021/03/08 09:38:13;;;;;;;0.60;0.60;;;1.60;99.90;;;;;;4910330;29;20215;-80
2021/03/08 09:48:25;;;;;;;0.60;0.60;;;1.80;99.90;;;;;;4910049;29;20434;-80
2021/03/08 09:53:32;;;;;;;0.60;0.60;;;1.70;99.90;;;;;;5571860;23;20351;-80
2021/03/08 09:56:04;;;;;;;0.60;0.60;;;1.80;99.90;;;;;;4917659;29;20209;-80
2021/03/08 09:58:30;;;;;;;0.60;0.60;;;2.00;99.90;;;;;;4914607;29;20244;-80
2021/03/08 10:00:59;;;;;;;0.60;0.60;;;2.30;99.90;;;;;;4914788;29;20208;-80
2021/03/08 10:03:26;;;;;;;0.60;0.60;;;2.30;99.90;;;;;;4909561;29;20583;-80
2021/03/08 10:05:54;;;;;;;0.60;0.60;;;2.20;99.90;;;;;;4915155;29;20251;-80
2021/03/08 10:08:22;;;;;;;0.60;0.60;;;2.10;99.90;;;;;;4914306;29;20683;-80
2021/03/08 10:10:49;;;;;;;0.57;0.57;;;2.10;99.90;;;;;;4909232;29;20750;-80
2021/03/08 10:13:17;;;;;;;0.60;0.60;;;2.10;99.90;;;;;;4908067;29;20225;-81
2021/03/08 10:15:48;;;;;;;0.50;0.50;;;2.00;99.90;;;;;;4913170;29;20743;-80
2021/03/08 10:18:18;;;;;;;0.52;0.52;;;2.10;99.90;;;;;;4912466;29;20529;-80
2021/03/08 10:20:53;;;;;;;0.50;0.50;;;2.20;99.90;;;;;;4914012;29;20220;-80
2021/03/08 10:23:23;;;;;;;0.60;0.60;;;2.30;99.90;;;;;;4913823;29;20211;-80
2021/03/08 10:25:50;;;;;;;0.60;0.60;;;2.30;99.90;;;;;;4914938;29;20726;-81
2021/03/08 10:28:17;;;;;;;0.60;0.60;;;2.20;99.90;;;;;;4913896;29;20213;-81
2021/03/08 10:30:44;;;;;;;0.60;0.60;;;2.30;99.90;;;;;;4910660;29;20213;-81
2021/03/08 10:33:13;;;;;;;0.60;0.60;;;2.30;99.90;;;;;;4900071;29;20228;-81
2021/03/08 10:35:43;;;;;;;0.60;0.60;;;2.50;99.90;;;;;;4913538;29;20256;-81
2021/03/08 10:38:11;;;;;;;0.60;0.60;;;2.60;99.90;;;;;;4913057;29;20213;-82
2021/03/08 10:40:37;;;;;;;0.60;0.60;;;2.60;99.90;;;;;;4913975;29;20212;-81
2021/03/08 10:43:04;;;;;;;0.60;0.60;;;2.60;99.90;;;;;;4913759;29;20201;-81
2021/03/08 10:45:31;;;;;;;0.60;0.60;;;2.60;99.90;;;;;;4913049;29;20208;-81
2021/03/08 10:48:08;;;;;;;0.60;0.60;;;2.80;99.90;;;;;;4908054;29;20539;-81
2021/03/08 10:50:44;;;;;;;0.60;0.60;;;2.70;99.90;;;;;;4906751;29;20644;-81
2021/03/08 10:53:12;;;;;;;0.60;0.60;;;3.10;99.90;;;;;;4900533;29;20233;-81
2021/03/08 10:55:39;;;;;;;0.60;0.60;;;3.10;99.90;;;;;;4919744;29;20279;-82
2021/03/08 10:58:06;;;;;;;0.60;0.60;;;3.00;99.90;;;;;;4920616;29;20224;-82
2021/03/08 11:00:32;;;;;;;0.60;0.60;;;3.30;99.90;;;;;;4921659;29;20276;-81
2021/03/08 11:03:00;;;;;;;0.60;0.60;;;3.20;99.90;;;;;;4920762;29;20449;-81
2021/03/08 11:05:27;;;;;;;0.60;0.60;;;3.30;99.90;;;;;;4923191;29;20579;-81
2021/03/08 11:07:54;;;;;;;0.60;0.60;;;3.40;99.90;;;;;;4922023;29;20323;-81
2021/03/08 11:10:39;;;;;;;0.60;0.60;;;3.50;99.90;;;;;;4920438;29;20672;-81
2021/03/08 11:13:07;;;;;;;0.60;0.60;;;3.60;99.90;;;;;;4920291;29;20578;-81
2021/03/08 11:15:35;;;;;;;0.60;0.60;;;3.70;99.90;;;;;;4921786;29;20204;-81
2021/03/08 11:18:01;;;;;;;0.52;0.52;;;3.90;99.90;;;;;;4922651;29;20579;-80
2021/03/08 11:20:29;;;;;;;0.60;0.60;;;4.10;99.90;;;;;;4921390;29;20226;-81
2021/03/08 11:22:57;;;;;;;0.60;0.60;;;4.00;99.90;;;;;;4921773;29;20206;-81
2021/03/08 11:25:29;;;;;;;0.60;0.60;;;4.10;99.90;;;;;;4922619;29;20208;-81
2021/03/08 11:27:57;;;;;;;0.60;0.60;;;4.20;99.90;;;;;;4917362;29;20205;-80
2021/03/08 11:30:25;;;;;;;0.60;0.60;;;4.40;99.90;;;;;;4923392;29;20208;-80
2021/03/08 11:32:53;;;;;;;0.60;0.60;;;4.60;99.90;;;;;;4922205;29;20251;-80
2021/03/08 11:35:23;;;;;;;0.60;0.60;;;5.20;99.90;;;;;;4922788;29;20208;-80
2021/03/08 11:37:50;;;;;;;0.60;0.60;;;4.70;99.90;;;;;;4914394;29;20220;-82
2021/03/08 11:40:19;;;;;;;0.50;0.50;;;5.30;99.90;;;;;;4913742;29;20258;-81
2021/03/08 11:42:46;;;;;;;0.60;0.60;;;5.50;99.90;;;;;;4922562;29;20208;-83
2021/03/08 11:45:17;;;;;;;0.60;0.60;;;5.30;99.90;;;;;;4918760;29;20612;-83
2021/03/08 11:47:43;;;;;;;0.70;0.70;;;5.70;99.90;;;;;;4913972;29;20213;-80
2021/03/08 11:50:11;;;;;;;0.60;0.60;;;5.60;99.90;;;;;;4919685;29;20239;-80
2021/03/08 11:52:37;;;;;;;0.60;0.60;;;5.80;99.90;;;;;;4918475;29;20703;-79
2021/03/08 11:55:05;;;;;;;0.60;0.60;;;5.50;99.90;;;;;;4912389;29;20232;-79
2021/03/08 11:57:31;;;;;;;0.50;0.50;;;5.50;99.90;;;;;;4912345;29;20216;-80
2021/03/08 11:59:57;;;;;;;0.60;0.60;;;6.60;99.90;;;;;;4916933;29;20209;-80
2021/03/08 12:02:29;;;;;;;0.60;0.60;;;6.80;99.90;;;;;;4920973;29;20644;-80
2021/03/08 12:04:56;;;;;;;0.60;0.60;;;6.90;99.90;;;;;;4914023;29;20205;-80
2021/03/08 12:07:22;;;;;;;0.60;0.60;;;6.90;99.90;;;;;;4912665;29;20209;-80
2021/03/08 12:09:50;;;;;;;0.60;0.60;;;6.80;99.90;;;;;;4910453;29;20213;-79
2021/03/08 12:12:16;;;;;;;0.60;0.60;;;6.50;98.10;;;;;;4910982;29;20216;-80
2021/03/08 12:14:42;;;;;;;0.55;0.55;;;6.60;98.30;;;;;;4909472;29;20270;-81
2021/03/08 12:17:09;;;;;;;0.60;0.60;;;6.60;97.10;;;;;;4918170;29;20268;-80
2021/03/08 12:19:36;;;;;;;0.60;0.60;;;6.20;95.30;;;;;;4915233;29;20205;-80
2021/03/08 12:22:02;;;;;;;0.50;0.50;;;5.90;93.80;;;;;;4914878;29;20209;-81
2021/03/08 12:24:28;;;;;;;0.60;0.60;;;6.40;94.30;;;;;;4913626;29;20208;-82
2021/03/08 12:26:54;;;;;;;0.60;0.60;;;6.70;99.90;;;;;;4914701;29;20609;-82
2021/03/08 12:29:20;;;;;;;0.60;0.60;;;7.20;96.50;;;;;;4910319;29;20221;-81
2021/03/08 12:31:46;;;;;;;0.60;0.60;;;6.50;90.50;;;;;;4912615;29;20679;-81
2021/03/08 12:34:13;;;;;;;0.60;0.60;;;7.00;94.70;;;;;;4916628;29;20684;-82
2021/03/08 12:36:40;;;;;;;0.60;0.60;;;7.00;92.70;;;;;;4918402;29;20213;-82
2021/03/08 12:39:06;;;;;;;0.60;0.60;;;6.80;89.30;;;;;;4912498;29;20231;-82
2021/03/08 12:41:33;;;;;;;0.60;0.60;;;6.60;90.40;;;;;;4915221;29;20209;-82
2021/03/08 12:43:59;;;;;;;0.60;0.60;;;6.40;90.40;;;;;;4912919;29;20668;-83
2021/03/08 12:46:25;;;;;;;0.60;0.60;;;6.80;90.10;;;;;;4913391;29;20685;-80
2021/03/08 12:48:51;;;;;;;0.60;0.60;;;6.30;85.70;;;;;;4911253;29;20223;-81
2021/03/08 12:51:18;;;;;;;0.50;0.50;;;6.30;89.20;;;;;;4911847;29;20239;-81
2021/03/08 12:53:45;;;;;;;0.60;0.60;;;6.80;84.00;;;;;;4918342;29;20295;-81
2021/03/08 12:56:11;;;;;;;0.60;0.60;;;7.30;84.90;;;;;;4911606;29;20205;-81
2021/03/08 12:58:37;;;;;;;0.60;0.60;;;7.30;82.50;;;;;;4911417;29;20214;-80
2021/03/08 13:01:03;;;;;;;0.60;0.60;;;7.40;84.10;;;;;;4908145;29;20216;-80
2021/03/08 13:03:30;;;;;;;0.60;0.60;;;7.60;91.50;;;;;;4895297;29;20661;-80
2021/03/08 13:05:56;;;;;;;0.60;0.60;;;8.00;92.40;;;;;;4908838;29;20791;-80
2021/03/08 13:08:22;;;;;;;0.60;0.60;;;7.00;83.00;;;;;;4904585;29;20535;-80
2021/03/08 13:10:49;;;;;;;0.60;0.60;;;7.20;87.30;;;;;;4906139;29;20212;-81
2021/03/08 13:13:21;;;;;;;0.60;0.60;;;7.50;87.80;;;;;;4908486;29;20221;-81